Time,TemperatureF,DewpointF,PressureIn,WindDirection,WindDirectionDegrees,WindSpeedMPH,WindSpeedGustMPH,Humidity,HourlyPrecipIn,Conditions,Clouds,dailyrainin,SoftwareType,DateUTC
2013-02-04 00:03:00,65.0,36.0,30.00,NNE,20,3.0,12.0,34,0.00,,---,0.00,VWS V14.00,2013-02-04 08:03:00,
2013-02-04 00:08:00,65.0,36.0,30.00,NNE,20,1.0,4.0,34,0.00,,---,0.00,VWS V14.00,2013-02-04 08:08:00,
2013-02-04 00:13:00,64.9,35.9,30.00,NNE,20,3.0,4.0,34,0.00,,---,0.00,VWS V14.00,2013-02-04 08:13:00,
2013-02-04 00:18:00,64.7,35.7,30.00,NNE,20,2.0,10.0,34,0.00,,---,0.00,VWS V14.00,2013-02-04 08:18:00,
2013-02-04 00:23:00,64.9,35.9,30.00,NNE,17,11.0,16.0,34,0.00,,---,0.00,VWS V14.00,2013-02-04 08:23:00,
2013-02-04 00:28:00,64.7,35.7,30.00,NNE,17,2.0,13.0,34,0.00,,---,0.00,VWS V14.00,2013-02-04 08:28:00,
2013-02-04 00:33:00,64.5,36.3,30.00,NNE,16,3.0,8.0,35,0.00,,---,0.00,VWS V14.00,2013-02-04 08:33:00,
2013-02-04 00:38:00,64.3,36.1,30.00,NNE,17,6.0,12.0,35,0.00,,---,0.00,VWS V14.00,2013-02-04 08:38:00,
2013-02-04 00:43:00,64.1,35.9,30.00,NNE,18,4.0,15.0,35,0.00,,---,0.00,VWS V14.00,2013-02-04 08:43:00,
2013-02-04 00:48:00,63.8,35.7,30.00,NNE,19,3.0,13.0,35,0.00,,---,0.00,VWS V14.00,2013-02-04 08:48:00,
2013-02-04 00:53:00,63.5,35.4,30.00,NNE,19,9.0,15.0,35,0.00,,---,0.00,VWS V14.00,2013-02-04 08:53:00,
2013-02-04 00:58:00,63.2,35.8,29.99,NNE,19,13.0,16.0,36,0.00,,---,0.00,VWS V14.00,2013-02-04 08:58:00,
2013-02-04 01:03:00,63.1,35.7,29.99,NNE,19,6.0,16.0,36,0.00,,---,0.00,VWS V14.00,2013-02-04 09:03:00,
2013-02-04 01:08:00,63.3,35.9,29.99,NNE,24,11.0,17.0,36,0.00,,---,0.00,VWS V14.00,2013-02-04 09:08:00,
2013-02-04 01:13:00,63.2,35.8,29.99,NNE,24,14.0,20.0,36,0.00,,---,0.00,VWS V14.00,2013-02-04 09:13:00,
2013-02-04 01:18:00,63.1,35.7,29.99,NNE,25,15.0,17.0,36,0.00,,---,0.00,VWS V14.00,2013-02-04 09:18:00,
2013-02-04 01:23:00,63.3,35.2,29.99,NNE,26,10.0,16.0,35,0.00,,---,0.00,VWS V14.00,2013-02-04 09:23:00,
2013-02-04 01:28:00,63.4,35.3,29.99,NNE,28,9.0,19.0,35,0.00,,---,0.00,VWS V14.00,2013-02-04 09:28:00,
2013-02-04 01:33:00,63.1,35.0,29.99,NNE,26,8.0,20.0,35,0.00,,---,0.00,VWS V14.00,2013-02-04 09:33:00,
2013-02-04 01:38:00,63.0,35.7,29.99,NNE,30,10.0,20.0,36,0.00,,---,0.00,VWS V14.00,2013-02-04 09:38:00,
2013-02-04 01:43:00,63.0,35.7,29.98,NNE,32,14.0,19.0,36,0.00,,---,0.00,VWS V14.00,2013-02-04 09:43:00,
2013-02-04 01:48:00,62.9,35.6,29.99,NNE,31,9.0,23.0,36,0.00,,---,0.00,VWS V14.00,2013-02-04 09:48:00,
2013-02-04 01:53:00,62.6,35.3,29.99,NNE,29,8.0,16.0,36,0.00,,---,0.00,VWS V14.00,2013-02-04 09:53:00,
2013-02-04 01:58:00,62.8,35.5,29.98,NE,39,17.0,24.0,36,0.00,,---,0.00,VWS V14.00,2013-02-04 09:58:00,
2013-02-04 02:03:00,63.1,35.0,29.98,NE,43,20.0,22.0,35,0.00,,---,0.00,VWS V14.00,2013-02-04 10:03:00,
2013-02-04 02:08:00,63.3,35.2,29.99,NE,40,20.0,21.0,35,0.00,,---,0.00,VWS V14.00,2013-02-04 10:08:00,
2013-02-04 02:13:00,63.1,35.0,29.99,NE,41,17.0,19.0,35,0.00,,---,0.00,VWS V14.00,2013-02-04 10:13:00,
2013-02-04 02:18:00,63.1,35.0,29.99,NE,46,9.0,17.0,35,0.00,,---,0.00,VWS V14.00,2013-02-04 10:18:00,
2013-02-04 02:23:00,63.4,34.6,29.99,NE,46,7.0,16.0,34,0.00,,---,0.00,VWS V14.00,2013-02-04 10:23:00,
2013-02-04 02:28:00,63.1,35.0,29.99,NE,46,11.0,18.0,35,0.00,,---,0.00,VWS V14.00,2013-02-04 10:28:00,
2013-02-04 02:33:00,62.9,34.8,29.99,NE,46,0.0,9.0,35,0.00,,---,0.00,VWS V14.00,2013-02-04 10:33:00,
2013-02-04 02:38:00,62.5,34.5,29.99,NE,46,2.0,4.0,35,0.00,,---,0.00,VWS V14.00,2013-02-04 10:38:00,
2013-02-04 02:43:00,62.3,35.0,29.99,NE,46,2.0,4.0,36,0.00,,---,0.00,VWS V14.00,2013-02-04 10:43:00,
2013-02-04 02:48:00,62.5,34.5,29.99,NE,46,4.0,9.0,35,0.00,,---,0.00,VWS V14.00,2013-02-04 10:48:00,
2013-02-04 02:53:00,62.3,35.0,29.99,NE,46,2.0,6.0,36,0.00,,---,0.00,VWS V14.00,2013-02-04 10:53:00,
2013-02-04 02:58:00,62.3,35.0,29.99,NE,46,5.0,6.0,36,0.00,,---,0.00,VWS V14.00,2013-02-04 10:58:00,
2013-02-04 03:03:00,62.3,35.0,29.99,NE,46,0.0,3.0,36,0.00,,---,0.00,VWS V14.00,2013-02-04 11:03:00,
2013-02-04 03:08:00,62.2,34.9,29.99,NE,46,0.0,4.0,36,0.00,,---,0.00,VWS V14.00,2013-02-04 11:08:00,
2013-02-04 03:13:00,61.9,34.7,29.99,NE,46,0.0,1.0,36,0.00,,---,0.00,VWS V14.00,2013-02-04 11:13:00,
2013-02-04 03:18:00,61.8,34.6,29.99,NE,46,3.0,4.0,36,0.00,,---,0.00,VWS V14.00,2013-02-04 11:18:00,
2013-02-04 03:23:00,61.8,34.6,29.99,NE,43,5.0,11.0,36,0.00,,---,0.00,VWS V14.00,2013-02-04 11:23:00,
2013-02-04 03:28:00,63.0,34.2,29.99,NNW,340,3.0,18.0,34,0.00,,---,0.00,VWS V14.00,2013-02-04 11:28:00,
2013-02-04 03:33:00,63.9,35.0,29.99,NNW,341,4.0,14.0,34,0.00,,---,0.00,VWS V14.00,2013-02-04 11:33:00,
2013-02-04 03:38:00,64.2,34.5,29.98,NNW,345,8.0,16.0,33,0.00,,---,0.00,VWS V14.00,2013-02-04 11:38:00,
2013-02-04 03:43:00,64.8,34.3,29.99,NNW,340,2.0,16.0,32,0.00,,---,0.00,VWS V14.00,2013-02-04 11:43:00,
2013-02-04 03:48:00,65.2,34.6,29.99,NW,306,1.0,14.0,32,0.00,,---,0.00,VWS V14.00,2013-02-04 11:48:00,
2013-02-04 03:53:00,64.8,34.3,29.99,NW,306,0.0,3.0,32,0.00,,---,0.00,VWS V14.00,2013-02-04 11:53:00,
2013-02-04 03:58:00,63.7,34.8,29.98,NW,306,1.0,6.0,34,0.00,,---,0.00,VWS V14.00,2013-02-04 11:58:00,
2013-02-04 04:03:00,62.7,34.0,29.98,NNW,329,4.0,16.0,34,0.00,,---,0.00,VWS V14.00,2013-02-04 12:03:00,
2013-02-04 04:08:00,62.4,34.4,29.98,NNW,329,3.0,5.0,35,0.00,,---,0.00,VWS V14.00,2013-02-04 12:08:00,
2013-02-04 04:13:00,62.7,34.0,29.98,NNW,331,2.0,10.0,34,0.00,,---,0.00,VWS V14.00,2013-02-04 12:13:00,
2013-02-04 04:18:00,62.9,34.1,29.99,NNW,335,5.0,8.0,34,0.00,,---,0.00,VWS V14.00,2013-02-04 12:18:00,
2013-02-04 04:23:00,62.7,34.0,29.99,NNW,336,6.0,10.0,34,0.00,,---,0.00,VWS V14.00,2013-02-04 12:23:00,
2013-02-04 04:28:00,62.4,34.4,29.98,NNW,336,5.0,8.0,35,0.00,,---,0.00,VWS V14.00,2013-02-04 12:28:00,
2013-02-04 04:33:00,62.5,33.8,29.98,North,9,8.0,17.0,34,0.00,,---,0.00,VWS V14.00,2013-02-04 12:33:00,
2013-02-04 04:39:00,62.7,34.0,29.98,North,11,6.0,16.0,34,0.00,,---,0.00,VWS V14.00,2013-02-04 12:39:00,
2013-02-04 04:44:00,63.1,34.3,29.98,NNE,15,6.0,12.0,34,0.00,,---,0.00,VWS V14.00,2013-02-04 12:44:00,
2013-02-04 04:49:00,63.2,34.4,29.98,NNE,15,8.0,15.0,34,0.00,,---,0.00,VWS V14.00,2013-02-04 12:49:00,
2013-02-04 04:54:00,63.6,34.0,29.98,NNE,16,2.0,15.0,33,0.00,,---,0.00,VWS V14.00,2013-02-04 12:54:00,
2013-02-04 04:59:00,64.1,33.7,29.98,NNE,16,3.0,7.0,32,0.00,,---,0.00,VWS V14.00,2013-02-04 12:59:00,
2013-02-04 05:04:00,64.4,33.9,29.98,NNE,16,4.0,12.0,32,0.00,,---,0.00,VWS V14.00,2013-02-04 13:04:00,
2013-02-04 05:09:00,64.4,33.9,29.98,NNE,16,1.0,6.0,32,0.00,,---,0.00,VWS V14.00,2013-02-04 13:09:00,
2013-02-04 05:14:00,64.2,33.8,29.98,NNE,16,0.0,9.0,32,0.00,,---,0.00,VWS V14.00,2013-02-04 13:14:00,
2013-02-04 05:19:00,63.3,33.7,29.98,NNE,16,1.0,7.0,33,0.00,,---,0.00,VWS V14.00,2013-02-04 13:19:00,
2013-02-04 05:24:00,62.8,33.3,29.99,NNE,16,2.0,4.0,33,0.00,,---,0.00,VWS V14.00,2013-02-04 13:24:00,
2013-02-04 05:29:00,62.2,33.5,29.99,NNE,16,0.0,3.0,34,0.00,,---,0.00,VWS V14.00,2013-02-04 13:29:00,
2013-02-04 05:34:00,62.2,34.2,29.99,NNE,16,0.0,0.0,35,0.00,,---,0.00,VWS V14.00,2013-02-04 13:34:00,
2013-02-04 05:39:00,62.8,34.0,29.99,NNE,16,1.0,3.0,34,0.00,,---,0.00,VWS V14.00,2013-02-04 13:39:00,
2013-02-04 05:44:00,63.0,34.2,29.99,NNE,16,3.0,7.0,34,0.00,,---,0.00,VWS V14.00,2013-02-04 13:44:00,
2013-02-04 05:49:00,62.8,33.3,29.99,NNE,16,2.0,3.0,33,0.00,,---,0.00,VWS V14.00,2013-02-04 13:49:00,
2013-02-04 05:54:00,62.3,34.3,29.99,NNE,16,0.0,3.0,35,0.00,,---,0.00,VWS V14.00,2013-02-04 13:54:00,
2013-02-04 05:59:00,62.0,34.1,29.99,NNE,16,2.0,4.0,35,0.00,,---,0.00,VWS V14.00,2013-02-04 13:59:00,
2013-02-04 06:04:00,62.5,33.8,29.99,NNE,16,0.0,2.0,34,0.00,,---,0.00,VWS V14.00,2013-02-04 14:04:00,
2013-02-04 06:09:00,62.6,34.6,29.99,NNE,16,2.0,4.0,35,0.00,,---,0.00,VWS V14.00,2013-02-04 14:09:00,
2013-02-04 06:14:00,60.4,34.7,30.00,NNE,16,1.0,2.0,38,0.00,,---,0.00,VWS V14.00,2013-02-04 14:14:00,
2013-02-04 06:19:00,58.6,34.4,29.99,NNE,16,0.0,2.0,40,0.00,,---,0.00,VWS V14.00,2013-02-04 14:19:00,
2013-02-04 06:24:00,57.7,34.8,29.99,NNE,16,0.0,2.0,42,0.00,,---,0.00,VWS V14.00,2013-02-04 14:24:00,
2013-02-04 06:29:00,57.2,34.3,29.99,NNE,16,0.0,3.0,42,0.00,,---,0.00,VWS V14.00,2013-02-04 14:29:00,
2013-02-04 06:34:00,56.9,34.7,30.00,NNE,16,2.0,5.0,43,0.00,,---,0.00,VWS V14.00,2013-02-04 14:34:00,
2013-02-04 06:39:00,57.4,34.5,30.00,NNE,16,0.0,2.0,42,0.00,,---,0.00,VWS V14.00,2013-02-04 14:39:00,
2013-02-04 06:44:00,57.6,34.7,30.00,NNE,16,4.0,5.0,42,0.00,,---,0.00,VWS V14.00,2013-02-04 14:44:00,
2013-02-04 06:49:00,57.8,34.3,30.00,NNE,16,2.0,3.0,41,0.00,,---,0.00,VWS V14.00,2013-02-04 14:49:00,
2013-02-04 06:54:00,57.9,34.4,30.00,NNE,16,1.0,4.0,41,0.00,,---,0.00,VWS V14.00,2013-02-04 14:54:00,
2013-02-04 06:59:00,59.2,34.3,30.00,NNE,16,0.0,3.0,39,0.00,,---,0.00,VWS V14.00,2013-02-04 14:59:00,
2013-02-04 07:04:00,60.3,34.6,30.00,NNE,16,0.0,6.0,38,0.00,,---,0.00,VWS V14.00,2013-02-04 15:04:00,
2013-02-04 07:09:00,60.6,34.2,30.00,NNE,16,2.0,4.0,37,0.00,,---,0.00,VWS V14.00,2013-02-04 15:09:00,
2013-02-04 07:14:00,61.5,34.3,30.00,NNE,16,2.0,4.0,36,0.00,,---,0.00,VWS V14.00,2013-02-04 15:14:00,
2013-02-04 07:19:00,62.0,34.8,30.01,NNE,22,1.0,5.0,36,0.00,,---,0.00,VWS V14.00,2013-02-04 15:19:00,
2013-02-04 07:24:00,62.4,35.1,30.01,NNE,22,2.0,6.0,36,0.00,,---,0.00,VWS V14.00,2013-02-04 15:24:00,
2013-02-04 07:29:00,62.8,35.5,30.01,NNE,22,7.0,8.0,36,0.00,,---,0.00,VWS V14.00,2013-02-04 15:29:00,
2013-02-04 07:34:00,63.4,35.3,30.01,NNE,22,1.0,4.0,35,0.00,,---,0.00,VWS V14.00,2013-02-04 15:34:00,
2013-02-04 07:39:00,64.1,35.2,30.01,NNE,22,2.0,4.0,34,0.00,,---,0.00,VWS V14.00,2013-02-04 15:39:00,
2013-02-04 07:44:00,64.8,35.0,30.01,NNE,22,1.0,5.0,33,0.00,,---,0.00,VWS V14.00,2013-02-04 15:44:00,
2013-02-04 07:49:00,65.1,36.1,30.01,NNE,22,0.0,0.0,34,0.00,,---,0.00,VWS V14.00,2013-02-04 15:49:00,
2013-02-04 07:54:00,65.6,36.5,30.01,NNE,22,0.0,0.0,34,0.00,,---,0.00,VWS V14.00,2013-02-04 15:54:00,
2013-02-04 07:59:00,66.0,36.8,30.01,NNE,22,0.0,0.0,34,0.00,,---,0.00,VWS V14.00,2013-02-04 15:59:00,
2013-02-04 08:04:00,66.1,35.4,30.01,NNE,22,2.0,3.0,32,0.00,,---,0.00,VWS V14.00,2013-02-04 16:04:00,
2013-02-04 08:09:00,66.1,35.4,30.01,NNE,32,1.0,5.0,32,0.00,,---,0.00,VWS V14.00,2013-02-04 16:09:00,
2013-02-04 08:14:00,66.1,34.6,30.02,NE,38,7.0,8.0,31,0.00,,---,0.00,VWS V14.00,2013-02-04 16:14:00,
2013-02-04 08:19:00,66.0,34.5,30.02,NE,38,2.0,4.0,31,0.00,,---,0.00,VWS V14.00,2013-02-04 16:19:00,
2013-02-04 08:24:00,66.5,35.0,30.02,NE,38,3.0,4.0,31,0.00,,---,0.00,VWS V14.00,2013-02-04 16:24:00,
2013-02-04 08:29:00,66.5,35.0,30.02,NE,38,1.0,6.0,31,0.00,,---,0.00,VWS V14.00,2013-02-04 16:29:00,
2013-02-04 08:34:00,66.7,35.9,30.02,NE,38,0.0,0.0,32,0.00,,---,0.00,VWS V14.00,2013-02-04 16:34:00,
2013-02-04 08:39:00,67.1,35.5,30.02,NE,38,0.0,3.0,31,0.00,,---,0.00,VWS V14.00,2013-02-04 16:39:00,
2013-02-04 08:44:00,67.6,35.1,30.02,NE,38,2.0,4.0,30,0.00,,---,0.00,VWS V14.00,2013-02-04 16:44:00,
2013-02-04 08:49:00,68.1,35.5,30.02,NE,38,0.0,1.0,30,0.00,,---,0.00,VWS V14.00,2013-02-04 16:49:00,
2013-02-04 08:54:00,68.7,35.2,30.03,NE,38,2.0,3.0,29,0.00,,---,0.00,VWS V14.00,2013-02-04 16:54:00,
2013-02-04 08:59:00,69.2,36.5,30.03,NE,38,3.0,6.0,30,0.00,,---,0.00,VWS V14.00,2013-02-04 16:59:00,
2013-02-04 09:04:00,69.4,35.8,30.03,NE,38,2.0,5.0,29,0.00,,---,0.00,VWS V14.00,2013-02-04 17:04:00,
2013-02-04 09:09:00,69.7,36.0,30.03,NE,38,1.0,10.0,29,0.00,,---,0.00,VWS V14.00,2013-02-04 17:09:00,
2013-02-04 09:14:00,70.0,36.3,30.03,NE,38,3.0,8.0,29,0.00,,---,0.00,VWS V14.00,2013-02-04 17:14:00,
2013-02-04 09:19:00,70.1,36.4,30.03,North,9,12.0,14.0,29,0.00,,---,0.00,VWS V14.00,2013-02-04 17:19:00,
2013-02-04 09:24:00,70.2,34.7,30.03,North,5,2.0,14.0,27,0.00,,---,0.00,VWS V14.00,2013-02-04 17:24:00,
2013-02-04 09:29:00,70.2,34.7,30.03,North,360,11.0,13.0,27,0.00,,---,0.00,VWS V14.00,2013-02-04 17:29:00,
2013-02-04 09:34:00,70.5,34.9,30.03,North,355,14.0,14.0,27,0.00,,---,0.00,VWS V14.00,2013-02-04 17:34:00,
2013-02-04 09:39:00,70.9,34.3,30.03,NNW,348,9.0,15.0,26,0.00,,---,0.00,VWS V14.00,2013-02-04 17:39:00,
2013-02-04 09:44:00,71.3,34.7,30.03,NNW,348,4.0,14.0,26,0.00,,---,0.00,VWS V14.00,2013-02-04 17:44:00,
2013-02-04 09:49:00,71.7,35.0,30.03,NNW,342,8.0,10.0,26,0.00,,---,0.00,VWS V14.00,2013-02-04 17:49:00,
2013-02-04 09:54:00,72.3,35.5,30.03,NNW,342,9.0,11.0,26,0.00,,---,0.00,VWS V14.00,2013-02-04 17:54:00,
2013-02-04 09:59:00,72.4,34.6,30.03,NNW,342,7.0,10.0,25,0.00,,---,0.00,VWS V14.00,2013-02-04 17:59:00,
2013-02-04 10:04:00,72.5,34.7,30.03,NNW,338,8.0,12.0,25,0.00,,---,0.00,VWS V14.00,2013-02-04 18:04:00,
2013-02-04 10:09:00,72.4,35.6,30.03,NNW,338,4.0,7.0,26,0.00,,---,0.00,VWS V14.00,2013-02-04 18:09:00,
2013-02-04 10:14:00,72.5,35.7,30.03,NNW,338,3.0,8.0,26,0.00,,---,0.00,VWS V14.00,2013-02-04 18:14:00,
2013-02-04 10:19:00,72.9,35.0,30.03,NNW,338,2.0,10.0,25,0.00,,---,0.00,VWS V14.00,2013-02-04 18:19:00,
2013-02-04 10:24:00,73.3,35.4,30.02,NNW,338,2.0,8.0,25,0.00,,---,0.00,VWS V14.00,2013-02-04 18:24:00,
2013-02-04 10:29:00,73.4,35.5,30.02,NNW,338,4.0,8.0,25,0.00,,---,0.00,VWS V14.00,2013-02-04 18:29:00,
2013-02-04 10:34:00,73.7,35.7,30.02,NNW,338,0.0,4.0,25,0.00,,---,0.00,VWS V14.00,2013-02-04 18:34:00,
2013-02-04 10:39:00,73.9,34.9,30.02,NW,304,13.0,16.0,24,0.00,,---,0.00,VWS V14.00,2013-02-04 18:39:00,
2013-02-04 10:44:00,73.8,35.8,30.02,WNW,292,1.0,12.0,25,0.00,,---,0.00,VWS V14.00,2013-02-04 18:44:00,
2013-02-04 10:49:00,73.9,35.9,30.02,WNW,292,2.0,11.0,25,0.00,,---,0.00,VWS V14.00,2013-02-04 18:49:00,
2013-02-04 10:54:00,74.2,36.2,30.01,WNW,292,5.0,13.0,25,0.00,,---,0.00,VWS V14.00,2013-02-04 18:54:00,
2013-02-04 10:59:00,74.2,36.2,30.02,WNW,292,3.0,10.0,25,0.00,,---,0.00,VWS V14.00,2013-02-04 18:59:00,
2013-02-04 11:04:00,74.4,36.3,30.01,WNW,292,5.0,5.0,25,0.00,,---,0.00,VWS V14.00,2013-02-04 19:04:00,
2013-02-04 11:09:00,74.7,36.6,30.01,WNW,292,0.0,7.0,25,0.00,,---,0.00,VWS V14.00,2013-02-04 19:09:00,
2013-02-04 11:14:00,74.9,36.7,30.01,WNW,286,10.0,11.0,25,0.00,,---,0.00,VWS V14.00,2013-02-04 19:14:00,
2013-02-04 11:19:00,75.2,36.0,30.00,West,275,6.0,11.0,24,0.00,,---,0.00,VWS V14.00,2013-02-04 19:19:00,
2013-02-04 11:24:00,75.4,36.1,30.00,WSW,252,4.0,16.0,24,0.00,,---,0.00,VWS V14.00,2013-02-04 19:24:00,
2013-02-04 11:29:00,75.6,36.3,30.00,SSW,211,7.0,13.0,24,0.00,,---,0.00,VWS V14.00,2013-02-04 19:29:00,
2013-02-04 11:34:00,76.0,36.6,30.00,South,175,8.0,16.0,24,0.00,,---,0.00,VWS V14.00,2013-02-04 19:34:00,
2013-02-04 11:39:00,76.3,35.8,29.99,South,171,6.0,14.0,23,0.00,,---,0.00,VWS V14.00,2013-02-04 19:39:00,
2013-02-04 11:45:00,76.2,36.8,29.99,South,171,4.0,8.0,24,0.00,,---,0.00,VWS V14.00,2013-02-04 19:45:00,
2013-02-04 11:50:00,76.5,36.0,29.99,South,171,1.0,12.0,23,0.00,,---,0.00,VWS V14.00,2013-02-04 19:50:00,
2013-02-04 11:55:00,76.6,35.0,29.98,South,171,1.0,11.0,22,0.00,,---,0.00,VWS V14.00,2013-02-04 19:55:00,
2013-02-04 12:00:00,76.5,34.9,29.98,South,185,14.0,14.0,22,0.00,,---,0.00,VWS V14.00,2013-02-04 20:00:00,
2013-02-04 12:05:00,76.1,34.5,29.98,South,188,4.0,11.0,22,0.00,,---,0.00,VWS V14.00,2013-02-04 20:05:00,
2013-02-04 12:10:00,76.2,35.7,29.98,South,188,3.0,10.0,23,0.00,,---,0.00,VWS V14.00,2013-02-04 20:10:00,
2013-02-04 12:15:00,76.5,36.0,29.97,South,188,3.0,12.0,23,0.00,,---,0.00,VWS V14.00,2013-02-04 20:15:00,
2013-02-04 12:20:00,77.0,35.3,29.97,South,180,2.0,16.0,22,0.00,,---,0.00,VWS V14.00,2013-02-04 20:20:00,
2013-02-04 12:25:00,77.2,35.5,29.96,South,175,8.0,14.0,22,0.00,,---,0.00,VWS V14.00,2013-02-04 20:25:00,
2013-02-04 12:30:00,77.0,34.1,29.96,South,175,3.0,11.0,21,0.00,,---,0.00,VWS V14.00,2013-02-04 20:30:00,
2013-02-04 12:35:00,77.0,35.3,29.96,South,175,4.0,9.0,22,0.00,,---,0.00,VWS V14.00,2013-02-04 20:35:00,
2013-02-04 12:40:00,77.1,35.4,29.96,South,175,0.0,6.0,22,0.00,,---,0.00,VWS V14.00,2013-02-04 20:40:00,
2013-02-04 12:45:00,77.3,33.1,29.96,South,175,7.0,7.0,20,0.00,,---,0.00,VWS V14.00,2013-02-04 20:45:00,
2013-02-04 12:50:00,77.6,32.1,29.95,SE,134,3.0,11.0,19,0.00,,---,0.00,VWS V14.00,2013-02-04 20:50:00,
2013-02-04 12:55:00,77.6,30.8,29.95,NE,41,12.0,18.0,18,0.00,,---,0.00,VWS V14.00,2013-02-04 20:55:00,
2013-02-04 13:00:00,77.6,32.1,29.95,NE,39,9.0,15.0,19,0.00,,---,0.00,VWS V14.00,2013-02-04 21:00:00,
2013-02-04 13:05:00,77.8,30.9,29.94,NE,43,9.0,22.0,18,0.00,,---,0.00,VWS V14.00,2013-02-04 21:05:00,
2013-02-04 13:10:00,77.7,30.9,29.94,NE,35,5.0,24.0,18,0.00,,---,0.00,VWS V14.00,2013-02-04 21:10:00,
2013-02-04 13:15:00,78.0,31.1,29.94,NNE,27,17.0,21.0,18,0.00,,---,0.00,VWS V14.00,2013-02-04 21:15:00,
2013-02-04 13:20:00,78.0,31.1,29.93,North,5,7.0,19.0,18,0.00,,---,0.00,VWS V14.00,2013-02-04 21:20:00,
2013-02-04 13:25:00,77.7,30.9,29.93,NE,36,18.0,25.0,18,0.00,,---,0.00,VWS V14.00,2013-02-04 21:25:00,
2013-02-04 13:30:00,77.8,29.5,29.93,NE,37,10.0,20.0,17,0.00,,---,0.00,VWS V14.00,2013-02-04 21:30:00,
2013-02-04 13:35:00,77.7,29.5,29.93,NNE,32,2.0,24.0,17,0.00,,---,0.00,VWS V14.00,2013-02-04 21:35:00,
2013-02-04 13:40:00,77.9,29.6,29.93,NE,51,10.0,16.0,17,0.00,,---,0.00,VWS V14.00,2013-02-04 21:40:00,
2013-02-04 13:45:00,77.8,29.5,29.93,NE,45,6.0,18.0,17,0.00,,---,0.00,VWS V14.00,2013-02-04 21:45:00,
2013-02-04 13:50:00,77.8,29.5,29.92,NE,38,15.0,19.0,17,0.00,,---,0.00,VWS V14.00,2013-02-04 21:50:00,
2013-02-04 13:55:00,77.7,29.5,29.92,NNE,30,12.0,17.0,17,0.00,,---,0.00,VWS V14.00,2013-02-04 21:55:00,
2013-02-04 14:00:00,77.7,29.5,29.92,NE,42,6.0,16.0,17,0.00,,---,0.00,VWS V14.00,2013-02-04 22:00:00,
2013-02-04 14:05:00,77.8,29.5,29.92,NE,43,2.0,13.0,17,0.00,,---,0.00,VWS V14.00,2013-02-04 22:05:00,
2013-02-04 14:10:00,77.8,29.5,29.92,NE,36,5.0,15.0,17,0.00,,---,0.00,VWS V14.00,2013-02-04 22:10:00,
2013-02-04 14:15:00,78.2,28.4,29.91,NNE,31,6.0,16.0,16,0.00,,---,0.00,VWS V14.00,2013-02-04 22:15:00,
2013-02-04 14:20:00,78.0,28.2,29.91,NE,48,7.0,14.0,16,0.00,,---,0.00,VWS V14.00,2013-02-04 22:20:00,
2013-02-04 14:25:00,77.8,28.1,29.91,NE,48,9.0,9.0,16,0.00,,---,0.00,VWS V14.00,2013-02-04 22:25:00,
2013-02-04 14:30:00,78.2,28.4,29.91,North,5,6.0,15.0,16,0.00,,---,0.00,VWS V14.00,2013-02-04 22:30:00,
2013-02-04 14:35:00,78.0,28.2,29.91,NE,54,12.0,17.0,16,0.00,,---,0.00,VWS V14.00,2013-02-04 22:35:00,
2013-02-04 14:40:00,78.2,28.4,29.91,NNE,26,8.0,14.0,16,0.00,,---,0.00,VWS V14.00,2013-02-04 22:40:00,
2013-02-04 14:45:00,78.2,28.4,29.91,NNE,13,15.0,17.0,16,0.00,,---,0.00,VWS V14.00,2013-02-04 22:45:00,
2013-02-04 14:50:00,78.3,28.5,29.91,NNE,17,4.0,12.0,16,0.00,,---,0.00,VWS V14.00,2013-02-04 22:50:00,
2013-02-04 14:55:00,78.3,28.5,29.91,NE,52,3.0,23.0,16,0.00,,---,0.00,VWS V14.00,2013-02-04 22:55:00,
2013-02-04 15:00:00,78.2,29.9,29.91,NNE,15,10.0,20.0,17,0.00,,---,0.00,VWS V14.00,2013-02-04 23:00:00,
2013-02-04 15:05:00,78.2,28.4,29.91,North,5,12.0,23.0,16,0.00,,---,0.00,VWS V14.00,2013-02-04 23:05:00,
2013-02-04 15:10:00,78.0,29.7,29.91,NNE,21,9.0,16.0,17,0.00,,---,0.00,VWS V14.00,2013-02-04 23:10:00,
2013-02-04 15:15:00,78.0,28.2,29.91,NE,42,11.0,17.0,16,0.00,,---,0.00,VWS V14.00,2013-02-04 23:15:00,
2013-02-04 15:20:00,77.8,29.5,29.91,NNE,31,11.0,16.0,17,0.00,,---,0.00,VWS V14.00,2013-02-04 23:20:00,
2013-02-04 15:25:00,77.7,29.5,29.91,NE,44,9.0,20.0,17,0.00,,---,0.00,VWS V14.00,2013-02-04 23:25:00,
2013-02-04 15:30:00,77.6,29.4,29.91,NNE,22,9.0,19.0,17,0.00,,---,0.00,VWS V14.00,2013-02-04 23:30:00,
2013-02-04 15:35:00,77.7,29.5,29.91,NNE,24,6.0,12.0,17,0.00,,---,0.00,VWS V14.00,2013-02-04 23:35:00,
2013-02-04 15:40:00,77.7,29.5,29.91,NNE,29,6.0,14.0,17,0.00,,---,0.00,VWS V14.00,2013-02-04 23:40:00,
2013-02-04 15:45:00,77.6,29.4,29.91,NNE,28,3.0,13.0,17,0.00,,---,0.00,VWS V14.00,2013-02-04 23:45:00,
2013-02-04 15:50:00,77.7,29.5,29.91,NNE,29,6.0,11.0,17,0.00,,---,0.00,VWS V14.00,2013-02-04 23:50:00,
2013-02-04 15:55:00,77.7,29.5,29.91,NNE,28,8.0,16.0,17,0.00,,---,0.00,VWS V14.00,2013-02-04 23:55:00,
2013-02-04 16:00:00,77.6,29.4,29.90,NE,46,10.0,17.0,17,0.00,,---,0.00,VWS V14.00,2013-02-05 00:00:00,
2013-02-04 16:05:00,77.2,29.0,29.91,NE,53,8.0,18.0,17,0.00,,---,0.00,VWS V14.00,2013-02-05 00:05:00,
2013-02-04 16:10:00,77.2,30.5,29.90,NE,53,2.0,8.0,18,0.00,,---,0.00,VWS V14.00,2013-02-05 00:10:00,
2013-02-04 16:15:00,77.3,31.9,29.90,NE,52,7.0,10.0,19,0.00,,---,0.00,VWS V14.00,2013-02-05 00:15:00,
2013-02-04 16:20:00,77.1,31.7,29.90,NE,48,10.0,12.0,19,0.00,,---,0.00,VWS V14.00,2013-02-05 00:20:00,
2013-02-04 16:25:00,76.9,30.2,29.90,NE,40,5.0,17.0,18,0.00,,---,0.00,VWS V14.00,2013-02-05 00:25:00,
2013-02-04 16:30:00,76.8,30.1,29.90,NE,40,8.0,11.0,18,0.00,,---,0.00,VWS V14.00,2013-02-05 00:30:00,
2013-02-04 16:35:00,76.5,31.2,29.90,NE,42,9.0,14.0,19,0.00,,---,0.00,VWS V14.00,2013-02-05 00:35:00,
2013-02-04 16:40:00,76.3,31.0,29.91,NE,42,7.0,14.0,19,0.00,,---,0.00,VWS V14.00,2013-02-05 00:40:00,
2013-02-04 16:45:00,76.0,30.8,29.91,NE,40,14.0,14.0,19,0.00,,---,0.00,VWS V14.00,2013-02-05 00:45:00,
2013-02-04 16:50:00,75.8,31.9,29.91,NE,34,9.0,12.0,20,0.00,,---,0.00,VWS V14.00,2013-02-05 00:50:00,
2013-02-04 16:55:00,75.5,31.7,29.90,NNE,32,6.0,13.0,20,0.00,,---,0.00,VWS V14.00,2013-02-05 00:55:00,
2013-02-04 17:00:00,75.2,31.4,29.90,NNE,32,3.0,12.0,20,0.00,,---,0.00,VWS V14.00,2013-02-05 01:00:00,
2013-02-04 17:05:00,74.6,30.9,29.90,NNE,30,5.0,16.0,20,0.00,,---,0.00,VWS V14.00,2013-02-05 01:05:00,
2013-02-04 17:10:00,74.2,30.6,29.91,NNE,30,6.0,12.0,20,0.00,,---,0.00,VWS V14.00,2013-02-05 01:10:00,
2013-02-04 17:15:00,73.9,30.3,29.91,NNE,30,3.0,8.0,20,0.00,,---,0.00,VWS V14.00,2013-02-05 01:15:00,
2013-02-04 17:20:00,73.5,31.2,29.91,NNE,30,3.0,8.0,21,0.00,,---,0.00,VWS V14.00,2013-02-05 01:20:00,
2013-02-04 17:25:00,73.1,30.9,29.91,NNE,30,3.0,6.0,21,0.00,,---,0.00,VWS V14.00,2013-02-05 01:25:00,
2013-02-04 17:30:00,72.7,31.7,29.91,NNE,30,3.0,4.0,22,0.00,,---,0.00,VWS V14.00,2013-02-05 01:30:00,
2013-02-04 17:35:00,72.5,31.5,29.91,NNE,30,2.0,5.0,22,0.00,,---,0.00,VWS V14.00,2013-02-05 01:35:00,
2013-02-04 17:41:00,71.9,31.0,29.91,NNE,30,2.0,6.0,22,0.00,,---,0.00,VWS V14.00,2013-02-05 01:41:00,
2013-02-04 17:46:00,71.7,30.9,29.92,NNE,30,1.0,5.0,22,0.00,,---,0.00,VWS V14.00,2013-02-05 01:46:00,
2013-02-04 17:51:00,71.5,30.7,29.92,NNE,30,1.0,2.0,22,0.00,,---,0.00,VWS V14.00,2013-02-05 01:51:00,
2013-02-04 17:56:00,71.2,31.5,29.92,NNE,30,1.0,3.0,23,0.00,,---,0.00,VWS V14.00,2013-02-05 01:56:00,
2013-02-04 18:01:00,71.2,30.4,29.92,NNE,30,2.0,4.0,22,0.00,,---,0.00,VWS V14.00,2013-02-05 02:01:00,
2013-02-04 18:06:00,71.1,30.4,29.92,NNE,30,0.0,4.0,22,0.00,,---,0.00,VWS V14.00,2013-02-05 02:06:00,
2013-02-04 18:11:00,71.1,30.4,29.93,NNE,30,0.0,4.0,22,0.00,,---,0.00,VWS V14.00,2013-02-05 02:11:00,
2013-02-04 18:16:00,70.8,30.1,29.93,NNE,30,2.0,3.0,22,0.00,,---,0.00,VWS V14.00,2013-02-05 02:16:00,
2013-02-04 18:21:00,71.1,29.2,29.93,NNE,30,4.0,4.0,21,0.00,,---,0.00,VWS V14.00,2013-02-05 02:21:00,
2013-02-04 18:26:00,71.3,30.5,29.93,NNE,30,2.0,4.0,22,0.00,,---,0.00,VWS V14.00,2013-02-05 02:26:00,
2013-02-04 18:31:00,71.2,29.3,29.93,NNE,30,0.0,2.0,21,0.00,,---,0.00,VWS V14.00,2013-02-05 02:31:00,
2013-02-04 18:36:00,71.5,30.7,29.93,NNE,30,0.0,0.0,22,0.00,,---,0.00,VWS V14.00,2013-02-05 02:36:00,
2013-02-04 18:41:00,71.1,30.4,29.93,NNE,30,2.0,4.0,22,0.00,,---,0.00,VWS V14.00,2013-02-05 02:41:00,
2013-02-04 18:46:00,70.9,29.0,29.93,NNE,30,7.0,9.0,21,0.00,,---,0.00,VWS V14.00,2013-02-05 02:46:00,
2013-02-04 18:51:00,71.2,29.3,29.93,NNE,30,5.0,10.0,21,0.00,,---,0.00,VWS V14.00,2013-02-05 02:51:00,
2013-02-04 18:56:00,71.2,28.1,29.93,NNE,30,4.0,8.0,20,0.00,,---,0.00,VWS V14.00,2013-02-05 02:56:00,
2013-02-04 19:01:00,71.3,28.2,29.93,NNE,30,5.0,12.0,20,0.00,,---,0.00,VWS V14.00,2013-02-05 03:01:00,
2013-02-04 19:06:00,71.2,28.1,29.94,NNE,30,3.0,5.0,20,0.00,,---,0.00,VWS V14.00,2013-02-05 03:06:00,
2013-02-04 19:11:00,70.8,26.5,29.94,NNE,30,3.0,7.0,19,0.00,,---,0.00,VWS V14.00,2013-02-05 03:11:00,
2013-02-04 19:16:00,71.0,28.0,29.94,NNE,31,2.0,5.0,20,0.00,,---,0.00,VWS V14.00,2013-02-05 03:16:00,
2013-02-04 19:21:00,71.2,26.9,29.94,NNE,30,3.0,6.0,19,0.00,,---,0.00,VWS V14.00,2013-02-05 03:21:00,
2013-02-04 19:26:00,70.2,28.5,29.94,NNE,30,2.0,4.0,21,0.00,,---,0.00,VWS V14.00,2013-02-05 03:26:00,
2013-02-04 19:31:00,69.2,29.9,29.95,NNE,30,1.0,2.0,23,0.00,,---,0.00,VWS V14.00,2013-02-05 03:31:00,
2013-02-04 19:36:00,68.8,29.5,29.95,NNE,30,2.0,4.0,23,0.00,,---,0.00,VWS V14.00,2013-02-05 03:36:00,
2013-02-04 19:41:00,68.8,29.5,29.94,NNE,30,0.0,3.0,23,0.00,,---,0.00,VWS V14.00,2013-02-05 03:41:00,
2013-02-04 19:46:00,68.5,29.3,29.95,NNE,30,0.0,5.0,23,0.00,,---,0.00,VWS V14.00,2013-02-05 03:46:00,
2013-02-04 19:51:00,67.9,30.8,29.95,NNE,30,1.0,2.0,25,0.00,,---,0.00,VWS V14.00,2013-02-05 03:51:00,
2013-02-04 19:56:00,67.2,29.2,29.95,NNE,30,8.0,10.0,24,0.00,,---,0.00,VWS V14.00,2013-02-05 03:56:00,
2013-02-04 20:01:00,68.2,32.0,29.95,NNE,30,2.0,9.0,26,0.00,,---,0.00,VWS V14.00,2013-02-05 04:01:00,
2013-02-04 20:06:00,68.6,31.4,29.96,NNE,30,2.0,5.0,25,0.00,,---,0.00,VWS V14.00,2013-02-05 04:06:00,
2013-02-04 20:11:00,68.7,32.5,29.96,NNE,30,0.0,4.0,26,0.00,,---,0.00,VWS V14.00,2013-02-05 04:11:00,
2013-02-04 20:16:00,68.2,32.0,29.96,NNE,30,1.0,4.0,26,0.00,,---,0.00,VWS V14.00,2013-02-05 04:16:00,
2013-02-04 20:21:00,67.9,34.5,29.96,NNE,30,0.0,4.0,29,0.00,,---,0.00,VWS V14.00,2013-02-05 04:21:00,
2013-02-04 20:26:00,67.0,34.6,29.96,NNE,30,0.0,3.0,30,0.00,,---,0.00,VWS V14.00,2013-02-05 04:26:00,
2013-02-04 20:31:00,66.0,34.5,29.96,NNE,30,0.0,3.0,31,0.00,,---,0.00,VWS V14.00,2013-02-05 04:31:00,
2013-02-04 20:36:00,65.3,33.9,29.96,NNE,30,1.0,3.0,31,0.00,,---,0.00,VWS V14.00,2013-02-05 04:36:00,
2013-02-04 20:41:00,65.0,34.5,29.97,NNE,30,2.0,6.0,32,0.00,,---,0.00,VWS V14.00,2013-02-05 04:41:00,
2013-02-04 20:46:00,64.9,32.8,29.97,NNE,30,0.0,4.0,30,0.00,,---,0.00,VWS V14.00,2013-02-05 04:46:00,
2013-02-04 20:51:00,65.2,33.0,29.97,NNE,30,0.0,0.0,30,0.00,,---,0.00,VWS V14.00,2013-02-05 04:51:00,
2013-02-04 20:56:00,65.0,30.2,29.97,NNE,30,1.0,3.0,27,0.00,,---,0.00,VWS V14.00,2013-02-05 04:56:00,
2013-02-04 21:01:00,65.1,29.4,29.97,NNE,30,2.0,2.0,26,0.00,,---,0.00,VWS V14.00,2013-02-05 05:01:00,
2013-02-04 21:06:00,64.6,29.0,29.97,NNE,30,2.0,3.0,26,0.00,,---,0.00,VWS V14.00,2013-02-05 05:06:00,
2013-02-04 21:11:00,63.8,29.2,29.97,NNE,30,3.0,3.0,27,0.00,,---,0.00,VWS V14.00,2013-02-05 05:11:00,
2013-02-04 21:16:00,63.4,27.9,29.97,NNE,30,2.0,2.0,26,0.00,,---,0.00,VWS V14.00,2013-02-05 05:16:00,
2013-02-04 21:21:00,63.4,27.0,29.97,NNE,30,0.0,0.0,25,0.00,,---,0.00,VWS V14.00,2013-02-05 05:21:00,
2013-02-04 21:26:00,63.5,27.1,29.97,NNE,30,3.0,4.0,25,0.00,,---,0.00,VWS V14.00,2013-02-05 05:26:00,
2013-02-04 21:31:00,63.7,30.9,29.97,NNE,30,1.0,4.0,29,0.00,,---,0.00,VWS V14.00,2013-02-05 05:31:00,
2013-02-04 21:36:00,63.9,31.9,29.97,NNE,30,0.0,2.0,30,0.00,,---,0.00,VWS V14.00,2013-02-05 05:36:00,
2013-02-04 21:41:00,63.5,32.3,29.97,NNE,30,2.0,2.0,31,0.00,,---,0.00,VWS V14.00,2013-02-05 05:41:00,
2013-02-04 21:46:00,63.7,31.7,29.97,NNE,30,2.0,2.0,30,0.00,,---,0.00,VWS V14.00,2013-02-05 05:46:00,
2013-02-04 21:51:00,63.9,31.9,29.97,NNE,30,0.0,0.0,30,0.00,,---,0.00,VWS V14.00,2013-02-05 05:51:00,
2013-02-04 21:56:00,64.3,29.6,29.97,NNE,30,2.0,2.0,27,0.00,,---,0.00,VWS V14.00,2013-02-05 05:56:00,
2013-02-04 22:01:00,64.1,29.5,29.97,NNE,30,1.0,1.0,27,0.00,,---,0.00,VWS V14.00,2013-02-05 06:01:00,
2013-02-04 22:06:00,64.2,28.6,29.97,NNE,30,1.0,2.0,26,0.00,,---,0.00,VWS V14.00,2013-02-05 06:06:00,
2013-02-04 22:11:00,64.4,29.7,29.97,NNE,30,1.0,2.0,27,0.00,,---,0.00,VWS V14.00,2013-02-05 06:11:00,
2013-02-04 22:16:00,64.3,29.6,29.97,NNE,30,2.0,3.0,27,0.00,,---,0.00,VWS V14.00,2013-02-05 06:16:00,
2013-02-04 22:21:00,64.3,28.7,29.97,NNE,30,3.0,3.0,26,0.00,,---,0.00,VWS V14.00,2013-02-05 06:21:00,
2013-02-04 22:26:00,63.7,27.2,29.97,NNE,30,2.0,2.0,25,0.00,,---,0.00,VWS V14.00,2013-02-05 06:26:00,
2013-02-04 22:31:00,63.4,27.9,29.97,NNE,30,0.0,2.0,26,0.00,,---,0.00,VWS V14.00,2013-02-05 06:31:00,
2013-02-04 22:36:00,63.0,26.6,29.97,NNE,30,1.0,2.0,25,0.00,,---,0.00,VWS V14.00,2013-02-05 06:36:00,
2013-02-04 22:41:00,62.9,26.6,29.97,NNE,30,1.0,2.0,25,0.00,,---,0.00,VWS V14.00,2013-02-05 06:41:00,
2013-02-04 22:46:00,62.8,26.5,29.97,NNE,30,0.0,2.0,25,0.00,,---,0.00,VWS V14.00,2013-02-05 06:46:00,
2013-02-04 22:51:00,62.6,27.3,29.97,NNE,30,2.0,3.0,26,0.00,,---,0.00,VWS V14.00,2013-02-05 06:51:00,
2013-02-04 22:56:00,62.9,25.6,29.97,NNE,30,5.0,11.0,24,0.00,,---,0.00,VWS V14.00,2013-02-05 06:56:00,
2013-02-04 23:01:00,63.4,25.0,29.97,NNE,30,10.0,10.0,23,0.00,,---,0.00,VWS V14.00,2013-02-05 07:01:00,
2013-02-04 23:06:00,63.4,25.0,29.97,NNE,30,3.0,4.0,23,0.00,,---,0.00,VWS V14.00,2013-02-05 07:06:00,
2013-02-04 23:11:00,63.3,24.9,29.97,NNE,30,4.0,7.0,23,0.00,,---,0.00,VWS V14.00,2013-02-05 07:11:00,
2013-02-04 23:16:00,63.5,25.1,29.97,NNE,30,10.0,12.0,23,0.00,,---,0.00,VWS V14.00,2013-02-05 07:16:00,
2013-02-04 23:21:00,63.4,23.9,29.97,NNE,30,4.0,5.0,22,0.00,,---,0.00,VWS V14.00,2013-02-05 07:21:00,
2013-02-04 23:26:00,63.4,23.9,29.97,NNE,30,10.0,10.0,22,0.00,,---,0.00,VWS V14.00,2013-02-05 07:26:00,
2013-02-04 23:31:00,63.4,22.8,29.97,NNE,30,4.0,7.0,21,0.00,,---,0.00,VWS V14.00,2013-02-05 07:31:00,
2013-02-04 23:36:00,63.5,22.9,29.97,NNE,30,5.0,5.0,21,0.00,,---,0.00,VWS V14.00,2013-02-05 07:36:00,
2013-02-04 23:41:00,63.8,23.1,29.97,NNE,30,0.0,4.0,21,0.00,,---,0.00,VWS V14.00,2013-02-05 07:41:00,
2013-02-04 23:46:00,64.2,22.3,29.97,NNE,30,1.0,2.0,20,0.00,,---,0.00,VWS V14.00,2013-02-05 07:46:00,
2013-02-04 23:51:00,64.0,22.1,29.97,NNE,30,2.0,6.0,20,0.00,,---,0.00,VWS V14.00,2013-02-05 07:51:00,
2013-02-04 23:56:00,64.3,22.4,29.97,NNE,30,2.0,4.0,20,0.00,,---,0.00,VWS V14.00,2013-02-05 07:56:00,